• Join FlightAware (Why Join?)
  • Login
  • US Flag 
12:47AM EDT


 

Airport Tracker/Info


-or-


 

Live Flight TrackerFlight Track Log ✈ KAP550 ✈ 13-May-2013 ✈ KMSS - KALB

Flight Track Log - Related Links

Times and Time Zones

All times are in EDT time to prevent confusion due to time zone crossing. See the KAP550 flight status page for this flight to view local times or setup timezone preferences in your user account.

Time Position Orientation Groundspeed Altitude Reporting Facility
EDT Latitude Longitude Course Direction KTS MPH feet Rate Location/Type
01:16PM 44.8217 -74.8544 160° South 151 174 5,900  Level Boston Center
01:17PM 44.7842 -74.8414 166° South 146 168 7,100 1,200 Climbing Boston Center
01:18PM 44.7472 -74.8222 160° South 141 162 8,400 1,020 Climbing Boston Center
01:19PM 44.7103 -74.7944 152° Southeast 141 162 9,200 360 Climbing Boston Center
01:20PM 44.7026 -74.7263 160° South  Level FlightAware Approximate
01:20PM 44.6647 -74.7750 163° South 159 183 9,200  Level Boston Center
01:21PM 44.6133 -74.7497 161° South 184 212 9,200  Level Boston Center
01:22PM 44.5658 -74.7244 159° South 189 217 9,200  Level Boston Center
01:23PM 44.5142 -74.6992 161° South 189 217 9,200  Level Boston Center
01:24PM 44.4667 -74.6742 159° South 189 217 9,200  Level Boston Center
01:25PM 44.4194 -74.6461 157° South 189 217 9,200  Level Boston Center
01:26PM 44.3719 -74.6269 164° South 189 217 9,200  Level Boston Center
01:27PM 44.3264 -74.5992 156° South 189 217 9,200  Level Boston Center
01:28PM 44.2792 -74.5742 159° South 189 217 9,300  Climbing Boston Center
01:29PM 44.2317 -74.5494 160° South 189 217 9,300  Level Boston Center
01:30PM 44.1778 -74.5214 160° South 189 217 9,300 -60 Level Boston Center
01:31PM 44.1303 -74.4994 162° South 184 212 9,200 -120 Descending Boston Center
01:32PM 44.0828 -74.4778 162° South 184 212 9,100 -60 Descending Boston Center
01:33PM 44.0353 -74.4500 157° South 184 212 9,100  Level Boston Center
01:34PM 43.9858 -74.4253 160° South 184 212 9,100  Level Boston Center
01:35PM 43.9361 -74.4006 160° South 184 212 9,200 60 Climbing Boston Center
01:36PM 43.8928 -74.3761 158° South 184 212 9,300  Climbing Boston Center
01:37PM 43.8475 -74.3544 161° South 184 212 9,300 -120 Level Boston Center
01:38PM 43.8019 -74.3328 161° South 179 206 9,100 -60 Descending Boston Center
01:39PM 43.7564 -74.3083 159° South 179 206 9,200  Climbing Boston Center
01:40PM 43.7108 -74.2869 161° South 179 206 9,200  Level Boston Center
01:41PM 43.6675 -74.2656 160° South 174 200 9,200  Level Boston Center
01:42PM 43.6242 -74.2442 160° South 169 194 9,200  Level Boston Center
01:43PM 43.5808 -74.2200 158° South 164 189 9,200  Level Boston Center
01:44PM 43.5269 -74.1925 160° South 164 189 9,200  Level Boston Center
01:45PM 43.4814 -74.1683 159° South 164 189 9,200  Level Boston Center
01:45PM 43.4628 -74.1622 167° South 175 201 9,200  Level Boston Center
01:46PM 43.4358 -74.1469 158° South 169 194 9,200  Level Boston Center
01:47PM 43.3906 -74.1200 157° South 169 194 9,200  Level Boston Center
01:48PM 43.3450 -74.0989 161° South 174 200 9,200 -120 Level Boston Center
01:49PM 43.3139 -74.0836 160° South 174 200 9,000 -480 Descending Boston Center
01:50PM 43.2478 -74.0506 160° South 187 215 8,300 -660 Descending Boston Center
01:51PM 43.1958 -74.0264 161° South 192 221 7,700 -660 Descending Boston Center
01:52PM 43.1400 -73.9964 159° South 187 215 6,900 -720 Descending Boston Center
01:53PM 43.0986 -73.9697 155° Southeast 192 221 6,300 -660 Descending Boston Center
01:54PM 43.0450 -73.9289 151° Southeast 189 217 5,600 -720 Descending Boston Center
01:55PM 43.0081 -73.8967 147° Southeast 192 221 4,900 -720 Descending Boston Center
01:56PM 42.9625 -73.8586 149° Southeast 197 227 4,300 -720 Descending Boston Center
01:57PM 42.9192 -73.8264 151° Southeast 197 227 3,500 -900 Descending Boston Center
01:58PM 42.8592 -73.7939 158° South 187 215 2,300 -780 Descending Boston Center
01:59PM 42.8072 -73.7758 166° South 178 205 1,800 3,360 Descending Boston Center
02:00PM 42.7536 -73.7267 146° Southeast 197 227 9,000 7,560 Climbing Boston Center
02:02PM 42.7333 -73.8000 170° South  Level FlightAware Approximate
02:09PM 42.7491 -73.8020 170° South  Level Estimated
02:10PM 42.7491 -73.8020 170° South  Level Estimated
02:11PM 42.7491 -73.8020 170° South  Level Estimated